sensor_id;sensor_type;location;lat;lon;timestamp;P1;durP1;ratioP1;P2;durP2;ratioP2
52674;SDS011;38569;52.722;6.440;2022-10-26T00:47:15;32.60;;;18.08;;
52674;SDS011;38569;52.722;6.440;2022-10-26T00:49:47;35.25;;;18.35;;
52674;SDS011;38569;52.722;6.440;2022-10-26T00:52:15;27.15;;;18.05;;
52674;SDS011;38569;52.722;6.440;2022-10-26T00:54:43;19.02;;;15.05;;
52674;SDS011;38569;52.722;6.440;2022-10-26T00:57:10;28.33;;;17.92;;
52674;SDS011;38569;52.722;6.440;2022-10-26T00:59:38;29.90;;;17.92;;
52674;SDS011;38569;52.722;6.440;2022-10-26T01:02:05;28.73;;;15.93;;
52674;SDS011;38569;52.722;6.440;2022-10-26T01:04:31;24.58;;;17.92;;
52674;SDS011;38569;52.722;6.440;2022-10-26T01:06:58;30.65;;;17.90;;
52674;SDS011;38569;52.722;6.440;2022-10-26T01:09:25;28.60;;;17.58;;
52674;SDS011;38569;52.722;6.440;2022-10-26T01:11:51;29.38;;;18.70;;
52674;SDS011;38569;52.722;6.440;2022-10-26T01:14:17;34.75;;;18.10;;
52674;SDS011;38569;52.722;6.440;2022-10-26T01:22:55;38.03;;;19.00;;
52674;SDS011;38569;52.722;6.440;2022-10-26T01:27:56;24.88;;;18.00;;
52674;SDS011;38569;52.722;6.440;2022-10-26T01:32:54;28.70;;;19.30;;
52674;SDS011;38569;52.722;6.440;2022-10-26T01:41:12;32.47;;;16.92;;
52674;SDS011;38569;52.722;6.440;2022-10-26T01:43:41;31.67;;;18.52;;
52674;SDS011;38569;52.722;6.440;2022-10-26T01:46:11;26.65;;;18.48;;
52674;SDS011;38569;52.722;6.440;2022-10-26T01:48:38;28.00;;;17.08;;
52674;SDS011;38569;52.722;6.440;2022-10-26T01:51:05;25.83;;;17.98;;
52674;SDS011;38569;52.722;6.440;2022-10-26T01:53:32;31.30;;;19.42;;
52674;SDS011;38569;52.722;6.440;2022-10-26T01:55:58;31.17;;;17.17;;
52674;SDS011;38569;52.722;6.440;2022-10-26T02:01:29;35.50;;;19.52;;
52674;SDS011;38569;52.722;6.440;2022-10-26T02:04:21;31.60;;;17.67;;
52674;SDS011;38569;52.722;6.440;2022-10-26T02:06:57;28.30;;;18.25;;
52674;SDS011;38569;52.722;6.440;2022-10-26T02:09:33;24.30;;;16.92;;
52674;SDS011;38569;52.722;6.440;2022-10-26T02:12:29;24.05;;;16.00;;
52674;SDS011;38569;52.722;6.440;2022-10-26T02:15:06;28.15;;;16.08;;
52674;SDS011;38569;52.722;6.440;2022-10-26T02:17:50;29.00;;;17.20;;
52674;SDS011;38569;52.722;6.440;2022-10-26T02:20:26;28.10;;;17.02;;
52674;SDS011;38569;52.722;6.440;2022-10-26T02:22:57;19.33;;;15.90;;
52674;SDS011;38569;52.722;6.440;2022-10-26T02:25:31;24.15;;;15.65;;
52674;SDS011;38569;52.722;6.440;2022-10-26T02:28:06;23.48;;;15.35;;
52674;SDS011;38569;52.722;6.440;2022-10-26T02:30:36;31.88;;;14.73;;
52674;SDS011;38569;52.722;6.440;2022-10-26T02:33:05;23.08;;;16.77;;
52674;SDS011;38569;52.722;6.440;2022-10-26T02:35:34;20.60;;;14.65;;
52674;SDS011;38569;52.722;6.440;2022-10-26T02:38:03;23.73;;;15.68;;
52674;SDS011;38569;52.722;6.440;2022-10-26T02:40:31;29.10;;;16.15;;
52674;SDS011;38569;52.722;6.440;2022-10-26T02:43:00;19.08;;;15.30;;
52674;SDS011;38569;52.722;6.440;2022-10-26T02:45:32;24.50;;;16.58;;
52674;SDS011;38569;52.722;6.440;2022-10-26T02:48:02;21.90;;;15.13;;
52674;SDS011;38569;52.722;6.440;2022-10-26T02:50:32;23.15;;;15.70;;
52674;SDS011;38569;52.722;6.440;2022-10-26T02:53:14;24.63;;;14.88;;
52674;SDS011;38569;52.722;6.440;2022-10-26T02:55:54;24.63;;;14.68;;
52674;SDS011;38569;52.722;6.440;2022-10-26T02:58:21;24.33;;;15.18;;
52674;SDS011;38569;52.722;6.440;2022-10-26T03:00:52;26.55;;;15.95;;
52674;SDS011;38569;52.722;6.440;2022-10-26T03:03:18;30.00;;;16.42;;
52674;SDS011;38569;52.722;6.440;2022-10-26T03:05:44;25.77;;;16.10;;
52674;SDS011;38569;52.722;6.440;2022-10-26T03:08:10;26.75;;;16.92;;
52674;SDS011;38569;52.722;6.440;2022-10-26T03:10:39;26.20;;;15.95;;
52674;SDS011;38569;52.722;6.440;2022-10-26T03:13:06;25.63;;;17.00;;
52674;SDS011;38569;52.722;6.440;2022-10-26T03:15:33;22.15;;;15.35;;
52674;SDS011;38569;52.722;6.440;2022-10-26T03:17:58;27.50;;;16.27;;
52674;SDS011;38569;52.722;6.440;2022-10-26T03:20:24;24.38;;;15.75;;
52674;SDS011;38569;52.722;6.440;2022-10-26T03:22:50;24.20;;;15.82;;
52674;SDS011;38569;52.722;6.440;2022-10-26T03:25:15;23.48;;;16.50;;
52674;SDS011;38569;52.722;6.440;2022-10-26T03:27:41;20.25;;;15.90;;
52674;SDS011;38569;52.722;6.440;2022-10-26T03:30:07;25.70;;;16.55;;
52674;SDS011;38569;52.722;6.440;2022-10-26T03:32:33;24.00;;;16.80;;
52674;SDS011;38569;52.722;6.440;2022-10-26T03:34:59;36.90;;;17.92;;
52674;SDS011;38569;52.722;6.440;2022-10-26T03:37:25;28.05;;;17.85;;
52674;SDS011;38569;52.722;6.440;2022-10-26T03:39:51;31.98;;;16.42;;
52674;SDS011;38569;52.722;6.440;2022-10-26T03:42:16;24.30;;;18.52;;
52674;SDS011;38569;52.722;6.440;2022-10-26T03:44:42;32.78;;;17.33;;
52674;SDS011;38569;52.722;6.440;2022-10-26T03:47:08;24.52;;;17.13;;
52674;SDS011;38569;52.722;6.440;2022-10-26T03:49:33;25.13;;;17.05;;
52674;SDS011;38569;52.722;6.440;2022-10-26T03:52:00;23.30;;;18.13;;
52674;SDS011;38569;52.722;6.440;2022-10-26T03:54:29;25.17;;;17.05;;
52674;SDS011;38569;52.722;6.440;2022-10-26T03:56:54;27.85;;;17.88;;
52674;SDS011;38569;52.722;6.440;2022-10-26T03:59:20;26.88;;;18.98;;
52674;SDS011;38569;52.722;6.440;2022-10-26T04:01:46;24.48;;;16.83;;
52674;SDS011;38569;52.722;6.440;2022-10-26T04:04:11;25.80;;;16.40;;
52674;SDS011;38569;52.722;6.440;2022-10-26T04:06:37;25.75;;;18.15;;
52674;SDS011;38569;52.722;6.440;2022-10-26T04:09:03;24.17;;;17.33;;
52674;SDS011;38569;52.722;6.440;2022-10-26T04:11:29;24.48;;;17.17;;
52674;SDS011;38569;52.722;6.440;2022-10-26T04:13:54;31.13;;;18.45;;
52674;SDS011;38569;52.722;6.440;2022-10-26T04:16:23;20.75;;;16.35;;
52674;SDS011;38569;52.722;6.440;2022-10-26T04:18:49;27.60;;;17.95;;
52674;SDS011;38569;52.722;6.440;2022-10-26T04:21:15;25.55;;;18.35;;
52674;SDS011;38569;52.722;6.440;2022-10-26T04:23:41;28.45;;;18.40;;
52674;SDS011;38569;52.722;6.440;2022-10-26T04:26:07;32.83;;;19.58;;
52674;SDS011;38569;52.722;6.440;2022-10-26T04:28:32;27.05;;;17.23;;
52674;SDS011;38569;52.722;6.440;2022-10-26T04:30:58;26.27;;;17.30;;
52674;SDS011;38569;52.722;6.440;2022-10-26T04:33:24;25.48;;;19.00;;
52674;SDS011;38569;52.722;6.440;2022-10-26T04:35:50;26.38;;;18.08;;
52674;SDS011;38569;52.722;6.440;2022-10-26T04:38:15;23.95;;;17.52;;
52674;SDS011;38569;52.722;6.440;2022-10-26T04:40:41;21.85;;;16.67;;
52674;SDS011;38569;52.722;6.440;2022-10-26T04:43:07;28.33;;;17.15;;
52674;SDS011;38569;52.722;6.440;2022-10-26T04:45:33;32.25;;;18.35;;
52674;SDS011;38569;52.722;6.440;2022-10-26T04:48:05;37.60;;;19.38;;
52674;SDS011;38569;52.722;6.440;2022-10-26T04:50:34;23.55;;;17.83;;
52674;SDS011;38569;52.722;6.440;2022-10-26T04:53:00;26.88;;;18.75;;
52674;SDS011;38569;52.722;6.440;2022-10-26T04:55:26;25.52;;;17.52;;
52674;SDS011;38569;52.722;6.440;2022-10-26T04:57:52;24.42;;;17.20;;
52674;SDS011;38569;52.722;6.440;2022-10-26T05:00:18;29.05;;;17.58;;
52674;SDS011;38569;52.722;6.440;2022-10-26T05:02:43;23.50;;;17.10;;
52674;SDS011;38569;52.722;6.440;2022-10-26T05:05:09;24.55;;;17.65;;
52674;SDS011;38569;52.722;6.440;2022-10-26T05:07:35;25.75;;;16.20;;
52674;SDS011;38569;52.722;6.440;2022-10-26T05:10:01;26.30;;;17.92;;
52674;SDS011;38569;52.722;6.440;2022-10-26T05:12:27;25.55;;;16.50;;
52674;SDS011;38569;52.722;6.440;2022-10-26T05:14:53;22.67;;;16.13;;
52674;SDS011;38569;52.722;6.440;2022-10-26T05:17:23;26.05;;;17.20;;
52674;SDS011;38569;52.722;6.440;2022-10-26T05:19:49;24.08;;;15.32;;
52674;SDS011;38569;52.722;6.440;2022-10-26T05:22:19;19.98;;;15.40;;
52674;SDS011;38569;52.722;6.440;2022-10-26T05:24:49;20.48;;;14.88;;
52674;SDS011;38569;52.722;6.440;2022-10-26T05:27:15;21.95;;;15.48;;
52674;SDS011;38569;52.722;6.440;2022-10-26T05:29:42;19.83;;;15.35;;
52674;SDS011;38569;52.722;6.440;2022-10-26T05:32:08;21.05;;;14.38;;
52674;SDS011;38569;52.722;6.440;2022-10-26T05:34:33;26.20;;;16.30;;
52674;SDS011;38569;52.722;6.440;2022-10-26T05:36:59;21.30;;;15.02;;
52674;SDS011;38569;52.722;6.440;2022-10-26T05:39:25;21.38;;;14.52;;
52674;SDS011;38569;52.722;6.440;2022-10-26T05:41:51;22.70;;;14.77;;
52674;SDS011;38569;52.722;6.440;2022-10-26T05:44:16;21.80;;;14.07;;
52674;SDS011;38569;52.722;6.440;2022-10-26T05:46:42;19.80;;;13.88;;
52674;SDS011;38569;52.722;6.440;2022-10-26T05:49:10;21.33;;;14.07;;
52674;SDS011;38569;52.722;6.440;2022-10-26T05:51:36;21.10;;;13.73;;
52674;SDS011;38569;52.722;6.440;2022-10-26T05:54:03;16.30;;;13.07;;
52674;SDS011;38569;52.722;6.440;2022-10-26T05:56:37;19.38;;;14.52;;
52674;SDS011;38569;52.722;6.440;2022-10-26T05:59:09;23.15;;;13.25;;
52674;SDS011;38569;52.722;6.440;2022-10-26T06:07:18;21.48;;;13.80;;
52674;SDS011;38569;52.722;6.440;2022-10-26T06:09:45;18.45;;;12.23;;
52674;SDS011;38569;52.722;6.440;2022-10-26T06:12:12;19.77;;;13.57;;
52674;SDS011;38569;52.722;6.440;2022-10-26T06:14:38;22.60;;;13.02;;
52674;SDS011;38569;52.722;6.440;2022-10-26T06:22:07;22.75;;;13.73;;
52674;SDS011;38569;52.722;6.440;2022-10-26T06:27:45;25.92;;;12.85;;
52674;SDS011;38569;52.722;6.440;2022-10-26T06:30:18;20.55;;;11.77;;
52674;SDS011;38569;52.722;6.440;2022-10-26T06:32:47;17.45;;;11.98;;
52674;SDS011;38569;52.722;6.440;2022-10-26T06:37:43;19.98;;;11.70;;
52674;SDS011;38569;52.722;6.440;2022-10-26T06:40:13;17.75;;;11.38;;
52674;SDS011;38569;52.722;6.440;2022-10-26T06:42:40;14.27;;;11.05;;
52674;SDS011;38569;52.722;6.440;2022-10-26T06:45:10;16.35;;;11.43;;
52674;SDS011;38569;52.722;6.440;2022-10-26T06:47:51;17.48;;;12.13;;
52674;SDS011;38569;52.722;6.440;2022-10-26T06:50:36;18.45;;;11.00;;
52674;SDS011;38569;52.722;6.440;2022-10-26T06:53:26;19.73;;;11.82;;
52674;SDS011;38569;52.722;6.440;2022-10-26T06:55:57;17.30;;;11.02;;
52674;SDS011;38569;52.722;6.440;2022-10-26T06:58:25;17.67;;;11.25;;
52674;SDS011;38569;52.722;6.440;2022-10-26T07:00:53;14.07;;;10.18;;
52674;SDS011;38569;52.722;6.440;2022-10-26T07:03:20;15.18;;;10.65;;
52674;SDS011;38569;52.722;6.440;2022-10-26T07:05:46;17.90;;;12.13;;
52674;SDS011;38569;52.722;6.440;2022-10-26T07:08:12;15.57;;;11.60;;
52674;SDS011;38569;52.722;6.440;2022-10-26T07:10:38;18.13;;;11.20;;
52674;SDS011;38569;52.722;6.440;2022-10-26T07:13:05;13.68;;;10.00;;
52674;SDS011;38569;52.722;6.440;2022-10-26T07:15:31;15.93;;;10.23;;
52674;SDS011;38569;52.722;6.440;2022-10-26T07:17:57;15.82;;;11.15;;
52674;SDS011;38569;52.722;6.440;2022-10-26T07:20:24;18.42;;;11.45;;
52674;SDS011;38569;52.722;6.440;2022-10-26T07:22:50;16.73;;;9.60;;
52674;SDS011;38569;52.722;6.440;2022-10-26T07:25:20;14.40;;;9.70;;
52674;SDS011;38569;52.722;6.440;2022-10-26T07:27:46;15.80;;;10.88;;
52674;SDS011;38569;52.722;6.440;2022-10-26T07:30:12;18.23;;;10.35;;
52674;SDS011;38569;52.722;6.440;2022-10-26T07:32:38;17.00;;;11.13;;
52674;SDS011;38569;52.722;6.440;2022-10-26T07:35:04;13.20;;;9.75;;
52674;SDS011;38569;52.722;6.440;2022-10-26T07:37:30;11.57;;;10.20;;
52674;SDS011;38569;52.722;6.440;2022-10-26T07:39:56;14.25;;;10.13;;
52674;SDS011;38569;52.722;6.440;2022-10-26T07:42:22;12.82;;;9.57;;
52674;SDS011;38569;52.722;6.440;2022-10-26T07:44:47;11.43;;;9.07;;
52674;SDS011;38569;52.722;6.440;2022-10-26T07:47:13;15.98;;;9.73;;
52674;SDS011;38569;52.722;6.440;2022-10-26T07:49:39;13.90;;;8.48;;
52674;SDS011;38569;52.722;6.440;2022-10-26T07:52:05;12.77;;;9.20;;
52674;SDS011;38569;52.722;6.440;2022-10-26T07:54:34;13.15;;;9.63;;
52674;SDS011;38569;52.722;6.440;2022-10-26T07:57:00;16.75;;;8.80;;
52674;SDS011;38569;52.722;6.440;2022-10-26T07:59:28;19.60;;;8.95;;
52674;SDS011;38569;52.722;6.440;2022-10-26T08:01:53;13.07;;;9.18;;
52674;SDS011;38569;52.722;6.440;2022-10-26T08:04:19;11.40;;;8.20;;
52674;SDS011;38569;52.722;6.440;2022-10-26T08:06:45;14.85;;;9.23;;
52674;SDS011;38569;52.722;6.440;2022-10-26T08:09:11;13.77;;;8.50;;
52674;SDS011;38569;52.722;6.440;2022-10-26T08:11:37;14.05;;;9.32;;
52674;SDS011;38569;52.722;6.440;2022-10-26T08:14:03;12.15;;;8.60;;
52674;SDS011;38569;52.722;6.440;2022-10-26T08:16:29;10.13;;;7.60;;
52674;SDS011;38569;52.722;6.440;2022-10-26T08:18:55;13.75;;;7.20;;
52674;SDS011;38569;52.722;6.440;2022-10-26T08:21:21;10.32;;;6.60;;
52674;SDS011;38569;52.722;6.440;2022-10-26T08:23:47;10.70;;;6.90;;
52674;SDS011;38569;52.722;6.440;2022-10-26T08:26:13;14.60;;;6.47;;
52674;SDS011;38569;52.722;6.440;2022-10-26T08:28:39;11.85;;;7.38;;
52674;SDS011;38569;52.722;6.440;2022-10-26T08:31:05;15.52;;;6.95;;
52674;SDS011;38569;52.722;6.440;2022-10-26T08:33:31;11.07;;;6.95;;
52674;SDS011;38569;52.722;6.440;2022-10-26T08:35:58;9.75;;;5.93;;
52674;SDS011;38569;52.722;6.440;2022-10-26T08:38:25;7.40;;;5.97;;
52674;SDS011;38569;52.722;6.440;2022-10-26T08:40:51;9.38;;;7.03;;
52674;SDS011;38569;52.722;6.440;2022-10-26T08:48:21;7.00;;;6.15;;
52674;SDS011;38569;52.722;6.440;2022-10-26T08:50:56;11.27;;;6.13;;
52674;SDS011;38569;52.722;6.440;2022-10-26T08:56:00;11.88;;;5.75;;
52674;SDS011;38569;52.722;6.440;2022-10-26T08:58:34;14.25;;;6.22;;
52674;SDS011;38569;52.722;6.440;2022-10-26T09:01:06;6.88;;;5.60;;
52674;SDS011;38569;52.722;6.440;2022-10-26T09:03:32;9.15;;;4.72;;
52674;SDS011;38569;52.722;6.440;2022-10-26T09:06:19;10.48;;;5.28;;
52674;SDS011;38569;52.722;6.440;2022-10-26T09:14:01;10.90;;;4.47;;
52674;SDS011;38569;52.722;6.440;2022-10-26T09:16:35;10.32;;;4.90;;
52674;SDS011;38569;52.722;6.440;2022-10-26T09:22:06;8.90;;;4.72;;
52674;SDS011;38569;52.722;6.440;2022-10-26T09:24:38;7.13;;;3.88;;
52674;SDS011;38569;52.722;6.440;2022-10-26T09:27:32;7.97;;;4.43;;
52674;SDS011;38569;52.722;6.440;2022-10-26T09:30:05;10.93;;;4.20;;
52674;SDS011;38569;52.722;6.440;2022-10-26T09:32:42;8.82;;;4.53;;
52674;SDS011;38569;52.722;6.440;2022-10-26T09:35:13;9.52;;;3.25;;
52674;SDS011;38569;52.722;6.440;2022-10-26T09:37:48;5.60;;;3.65;;
52674;SDS011;38569;52.722;6.440;2022-10-26T09:42:57;10.43;;;3.97;;
52674;SDS011;38569;52.722;6.440;2022-10-26T09:45:45;9.82;;;3.50;;
52674;SDS011;38569;52.722;6.440;2022-10-26T09:48:24;7.88;;;3.15;;
52674;SDS011;38569;52.722;6.440;2022-10-26T09:50:51;6.20;;;3.08;;
52674;SDS011;38569;52.722;6.440;2022-10-26T09:53:17;10.43;;;3.55;;
52674;SDS011;38569;52.722;6.440;2022-10-26T09:55:46;7.32;;;2.92;;
52674;SDS011;38569;52.722;6.440;2022-10-26T09:58:19;6.47;;;3.03;;
52674;SDS011;38569;52.722;6.440;2022-10-26T10:00:49;8.15;;;2.63;;
52674;SDS011;38569;52.722;6.440;2022-10-26T10:03:24;8.35;;;3.20;;
52674;SDS011;38569;52.722;6.440;2022-10-26T10:05:51;6.15;;;2.80;;
52674;SDS011;38569;52.722;6.440;2022-10-26T10:08:21;5.30;;;2.78;;
52674;SDS011;38569;52.722;6.440;2022-10-26T10:11:02;9.90;;;2.92;;
52674;SDS011;38569;52.722;6.440;2022-10-26T10:13:33;9.00;;;2.55;;
52674;SDS011;38569;52.722;6.440;2022-10-26T10:18:56;5.15;;;3.42;;
52674;SDS011;38569;52.722;6.440;2022-10-26T10:21:33;7.90;;;3.10;;
52674;SDS011;38569;52.722;6.440;2022-10-26T10:24:25;5.78;;;2.38;;
52674;SDS011;38569;52.722;6.440;2022-10-26T10:26:55;7.05;;;2.30;;
52674;SDS011;38569;52.722;6.440;2022-10-26T10:29:23;7.18;;;2.17;;
52674;SDS011;38569;52.722;6.440;2022-10-26T10:31:57;6.72;;;3.35;;
52674;SDS011;38569;52.722;6.440;2022-10-26T10:34:25;7.20;;;2.78;;
52674;SDS011;38569;52.722;6.440;2022-10-26T10:36:51;4.82;;;1.90;;
52674;SDS011;38569;52.722;6.440;2022-10-26T10:42:02;5.75;;;2.50;;
52674;SDS011;38569;52.722;6.440;2022-10-26T10:44:43;5.80;;;2.20;;
52674;SDS011;38569;52.722;6.440;2022-10-26T10:47:15;8.20;;;2.28;;
52674;SDS011;38569;52.722;6.440;2022-10-26T10:49:54;9.55;;;2.90;;
52674;SDS011;38569;52.722;6.440;2022-10-26T10:52:24;7.90;;;2.22;;
52674;SDS011;38569;52.722;6.440;2022-10-26T10:54:55;5.78;;;2.33;;
52674;SDS011;38569;52.722;6.440;2022-10-26T10:57:46;7.43;;;2.55;;
52674;SDS011;38569;52.722;6.440;2022-10-26T11:00:15;6.68;;;2.45;;
52674;SDS011;38569;52.722;6.440;2022-10-26T11:11:07;6.80;;;2.47;;
52674;SDS011;38569;52.722;6.440;2022-10-26T11:13:55;7.57;;;2.67;;
52674;SDS011;38569;52.722;6.440;2022-10-26T11:16:32;8.23;;;2.50;;
52674;SDS011;38569;52.722;6.440;2022-10-26T11:19:15;7.15;;;2.03;;
52674;SDS011;38569;52.722;6.440;2022-10-26T11:21:48;7.18;;;2.50;;
52674;SDS011;38569;52.722;6.440;2022-10-26T11:24:26;4.05;;;2.65;;
52674;SDS011;38569;52.722;6.440;2022-10-26T11:27:17;11.77;;;2.60;;
52674;SDS011;38569;52.722;6.440;2022-10-26T11:35:26;8.20;;;3.08;;
52674;SDS011;38569;52.722;6.440;2022-10-26T11:40:44;8.07;;;2.63;;
52674;SDS011;38569;52.722;6.440;2022-10-26T11:45:45;5.15;;;2.58;;
52674;SDS011;38569;52.722;6.440;2022-10-26T11:48:34;6.18;;;2.65;;
52674;SDS011;38569;52.722;6.440;2022-10-26T11:51:10;4.82;;;2.60;;
52674;SDS011;38569;52.722;6.440;2022-10-26T11:54:02;8.82;;;2.72;;
52674;SDS011;38569;52.722;6.440;2022-10-26T11:56:40;6.68;;;2.35;;
52674;SDS011;38569;52.722;6.440;2022-10-26T11:59:47;5.47;;;2.22;;
52674;SDS011;38569;52.722;6.440;2022-10-26T12:02:25;5.03;;;2.55;;
52674;SDS011;38569;52.722;6.440;2022-10-26T12:04:58;6.53;;;2.95;;
52674;SDS011;38569;52.722;6.440;2022-10-26T12:07:30;5.43;;;2.63;;
52674;SDS011;38569;52.722;6.440;2022-10-26T12:09:59;8.40;;;2.97;;
52674;SDS011;38569;52.722;6.440;2022-10-26T12:12:30;10.63;;;3.20;;
52674;SDS011;38569;52.722;6.440;2022-10-26T12:18:02;7.25;;;3.22;;
52674;SDS011;38569;52.722;6.440;2022-10-26T12:23:28;5.88;;;2.65;;
52674;SDS011;38569;52.722;6.440;2022-10-26T12:33:56;7.80;;;3.10;;
52674;SDS011;38569;52.722;6.440;2022-10-26T12:42:33;6.55;;;2.47;;
52674;SDS011;38569;52.722;6.440;2022-10-26T12:52:44;12.15;;;2.85;;
52674;SDS011;38569;52.722;6.440;2022-10-26T12:57:50;7.47;;;2.70;;
52674;SDS011;38569;52.722;6.440;2022-10-26T13:00:26;10.88;;;3.45;;
52674;SDS011;38569;52.722;6.440;2022-10-26T13:08:12;13.02;;;3.25;;
52674;SDS011;38569;52.722;6.440;2022-10-26T13:10:42;5.88;;;3.10;;
52674;SDS011;38569;52.722;6.440;2022-10-26T13:13:30;7.05;;;3.13;;
52674;SDS011;38569;52.722;6.440;2022-10-26T13:15:57;11.93;;;4.20;;
52674;SDS011;38569;52.722;6.440;2022-10-26T13:18:25;12.07;;;4.00;;
52674;SDS011;38569;52.722;6.440;2022-10-26T13:23:46;7.95;;;3.55;;
52674;SDS011;38569;52.722;6.440;2022-10-26T13:26:22;10.98;;;4.55;;
52674;SDS011;38569;52.722;6.440;2022-10-26T13:28:50;8.43;;;3.33;;
52674;SDS011;38569;52.722;6.440;2022-10-26T13:34:00;9.15;;;3.22;;
52674;SDS011;38569;52.722;6.440;2022-10-26T13:36:40;6.70;;;3.13;;
52674;SDS011;38569;52.722;6.440;2022-10-26T13:39:31;12.30;;;3.83;;
52674;SDS011;38569;52.722;6.440;2022-10-26T13:41:59;11.23;;;3.63;;
52674;SDS011;38569;52.722;6.440;2022-10-26T13:44:34;10.55;;;3.75;;
52674;SDS011;38569;52.722;6.440;2022-10-26T13:47:10;7.53;;;2.90;;
52674;SDS011;38569;52.722;6.440;2022-10-26T13:49:41;10.10;;;3.65;;
52674;SDS011;38569;52.722;6.440;2022-10-26T13:52:27;10.68;;;3.90;;
52674;SDS011;38569;52.722;6.440;2022-10-26T13:55:08;8.85;;;3.78;;
52674;SDS011;38569;52.722;6.440;2022-10-26T13:57:43;9.70;;;3.50;;
52674;SDS011;38569;52.722;6.440;2022-10-26T14:00:21;11.35;;;4.25;;
52674;SDS011;38569;52.722;6.440;2022-10-26T14:02:47;11.00;;;4.05;;
52674;SDS011;38569;52.722;6.440;2022-10-26T14:05:14;8.48;;;3.30;;
52674;SDS011;38569;52.722;6.440;2022-10-26T14:07:46;9.52;;;3.40;;
52674;SDS011;38569;52.722;6.440;2022-10-26T14:10:35;8.10;;;2.72;;
52674;SDS011;38569;52.722;6.440;2022-10-26T14:13:08;11.68;;;3.63;;
52674;SDS011;38569;52.722;6.440;2022-10-26T14:18:06;9.80;;;3.33;;
52674;SDS011;38569;52.722;6.440;2022-10-26T14:20:45;7.25;;;3.17;;
52674;SDS011;38569;52.722;6.440;2022-10-26T14:23:25;7.78;;;3.13;;
52674;SDS011;38569;52.722;6.440;2022-10-26T14:25:59;7.25;;;3.10;;
52674;SDS011;38569;52.722;6.440;2022-10-26T14:28:32;7.57;;;3.20;;
52674;SDS011;38569;52.722;6.440;2022-10-26T14:31:21;6.38;;;3.08;;
52674;SDS011;38569;52.722;6.440;2022-10-26T14:33:50;15.40;;;3.10;;
52674;SDS011;38569;52.722;6.440;2022-10-26T14:36:16;8.63;;;3.20;;
52674;SDS011;38569;52.722;6.440;2022-10-26T14:38:47;5.70;;;3.00;;
52674;SDS011;38569;52.722;6.440;2022-10-26T14:41:15;7.40;;;3.20;;
52674;SDS011;38569;52.722;6.440;2022-10-26T14:43:42;6.63;;;2.67;;
52674;SDS011;38569;52.722;6.440;2022-10-26T14:46:15;5.75;;;3.40;;
52674;SDS011;38569;52.722;6.440;2022-10-26T14:48:49;3.78;;;2.55;;
52674;SDS011;38569;52.722;6.440;2022-10-26T14:51:29;7.28;;;3.00;;
52674;SDS011;38569;52.722;6.440;2022-10-26T14:53:59;7.97;;;3.50;;
52674;SDS011;38569;52.722;6.440;2022-10-26T14:56:30;6.35;;;3.28;;
52674;SDS011;38569;52.722;6.440;2022-10-26T15:01:51;10.00;;;3.38;;
52674;SDS011;38569;52.722;6.440;2022-10-26T15:15:36;9.73;;;3.17;;
52674;SDS011;38569;52.722;6.440;2022-10-26T15:17:55;6.40;;;3.30;;
52674;SDS011;38569;52.722;6.440;2022-10-26T15:20:23;6.32;;;3.33;;
52674;SDS011;38569;52.722;6.440;2022-10-26T15:22:54;6.32;;;3.60;;
52674;SDS011;38569;52.722;6.440;2022-10-26T15:25:21;6.88;;;4.00;;
52674;SDS011;38569;52.722;6.440;2022-10-26T15:27:49;8.43;;;4.00;;
52674;SDS011;38569;52.722;6.440;2022-10-26T15:30:25;9.27;;;3.47;;
52674;SDS011;38569;52.722;6.440;2022-10-26T15:32:53;6.45;;;3.70;;
52674;SDS011;38569;52.722;6.440;2022-10-26T15:35:21;9.32;;;4.30;;
52674;SDS011;38569;52.722;6.440;2022-10-26T15:37:52;8.80;;;4.43;;
52674;SDS011;38569;52.722;6.440;2022-10-26T15:40:20;4.20;;;3.70;;
52674;SDS011;38569;52.722;6.440;2022-10-26T15:42:50;9.20;;;4.47;;
52674;SDS011;38569;52.722;6.440;2022-10-26T15:47:51;11.32;;;5.18;;
52674;SDS011;38569;52.722;6.440;2022-10-26T15:50:20;8.00;;;4.65;;
52674;SDS011;38569;52.722;6.440;2022-10-26T15:52:47;9.63;;;4.63;;
52674;SDS011;38569;52.722;6.440;2022-10-26T15:55:14;7.80;;;4.05;;
52674;SDS011;38569;52.722;6.440;2022-10-26T15:57:41;8.18;;;5.10;;
52674;SDS011;38569;52.722;6.440;2022-10-26T16:00:09;8.88;;;5.60;;
52674;SDS011;38569;52.722;6.440;2022-10-26T16:02:39;10.23;;;7.18;;
52674;SDS011;38569;52.722;6.440;2022-10-26T16:05:07;8.65;;;4.63;;
52674;SDS011;38569;52.722;6.440;2022-10-26T16:07:33;8.65;;;4.80;;
52674;SDS011;38569;52.722;6.440;2022-10-26T16:09:59;7.40;;;3.95;;
52674;SDS011;38569;52.722;6.440;2022-10-26T16:12:25;14.23;;;4.85;;
52674;SDS011;38569;52.722;6.440;2022-10-26T16:14:50;9.98;;;5.32;;
52674;SDS011;38569;52.722;6.440;2022-10-26T16:17:16;8.85;;;4.78;;
52674;SDS011;38569;52.722;6.440;2022-10-26T16:19:42;9.57;;;4.57;;
52674;SDS011;38569;52.722;6.440;2022-10-26T16:22:08;7.03;;;4.28;;
52674;SDS011;38569;52.722;6.440;2022-10-26T16:24:33;7.10;;;4.05;;
52674;SDS011;38569;52.722;6.440;2022-10-26T16:26:59;9.75;;;4.38;;
52674;SDS011;38569;52.722;6.440;2022-10-26T16:29:25;9.82;;;4.35;;
52674;SDS011;38569;52.722;6.440;2022-10-26T16:31:51;9.15;;;4.18;;
52674;SDS011;38569;52.722;6.440;2022-10-26T16:34:16;7.65;;;4.18;;
52674;SDS011;38569;52.722;6.440;2022-10-26T16:36:42;8.63;;;4.50;;
52674;SDS011;38569;52.722;6.440;2022-10-26T16:39:10;7.40;;;3.78;;
52674;SDS011;38569;52.722;6.440;2022-10-26T16:41:36;6.32;;;4.28;;
52674;SDS011;38569;52.722;6.440;2022-10-26T16:44:02;6.15;;;4.03;;
52674;SDS011;38569;52.722;6.440;2022-10-26T16:46:27;9.07;;;4.97;;
52674;SDS011;38569;52.722;6.440;2022-10-26T16:48:53;7.45;;;4.88;;
52674;SDS011;38569;52.722;6.440;2022-10-26T16:51:20;7.72;;;4.93;;
52674;SDS011;38569;52.722;6.440;2022-10-26T16:53:48;10.15;;;5.10;;
52674;SDS011;38569;52.722;6.440;2022-10-26T16:56:16;8.10;;;4.88;;
52674;SDS011;38569;52.722;6.440;2022-10-26T16:58:44;9.20;;;5.65;;
52674;SDS011;38569;52.722;6.440;2022-10-26T17:01:10;10.10;;;5.05;;
52674;SDS011;38569;52.722;6.440;2022-10-26T17:03:38;8.55;;;4.53;;
52674;SDS011;38569;52.722;6.440;2022-10-26T17:06:04;8.52;;;4.80;;
52674;SDS011;38569;52.722;6.440;2022-10-26T17:08:32;11.02;;;4.82;;
52674;SDS011;38569;52.722;6.440;2022-10-26T17:11:03;7.25;;;4.97;;
52674;SDS011;38569;52.722;6.440;2022-10-26T17:13:36;8.98;;;5.10;;
52674;SDS011;38569;52.722;6.440;2022-10-26T17:16:03;10.60;;;5.22;;
52674;SDS011;38569;52.722;6.440;2022-10-26T17:18:30;10.73;;;5.50;;
52674;SDS011;38569;52.722;6.440;2022-10-26T17:20:56;7.60;;;5.03;;
52674;SDS011;38569;52.722;6.440;2022-10-26T17:23:22;9.27;;;5.00;;
52674;SDS011;38569;52.722;6.440;2022-10-26T17:25:48;8.02;;;5.05;;
52674;SDS011;38569;52.722;6.440;2022-10-26T17:28:14;8.15;;;5.57;;
52674;SDS011;38569;52.722;6.440;2022-10-26T17:30:40;9.45;;;5.65;;
52674;SDS011;38569;52.722;6.440;2022-10-26T17:33:06;7.57;;;6.10;;
52674;SDS011;38569;52.722;6.440;2022-10-26T17:35:32;9.73;;;5.90;;
52674;SDS011;38569;52.722;6.440;2022-10-26T17:37:59;8.35;;;6.63;;
52674;SDS011;38569;52.722;6.440;2022-10-26T17:40:25;11.35;;;6.40;;
52674;SDS011;38569;52.722;6.440;2022-10-26T17:42:50;14.20;;;6.60;;
52674;SDS011;38569;52.722;6.440;2022-10-26T17:45:16;12.77;;;7.05;;
52674;SDS011;38569;52.722;6.440;2022-10-26T17:47:42;10.55;;;7.18;;
52674;SDS011;38569;52.722;6.440;2022-10-26T17:50:08;9.13;;;7.28;;
52674;SDS011;38569;52.722;6.440;2022-10-26T17:52:34;10.95;;;7.93;;
52674;SDS011;38569;52.722;6.440;2022-10-26T17:55:00;11.38;;;8.27;;